createdAt,value
2023-03-23T15:58:44.142Z,16.30
2023-03-23T16:01:14.191Z,16.10
2023-03-23T16:03:55.792Z,15.90
2023-03-23T16:06:28.225Z,15.80
2023-03-23T16:08:56.490Z,15.80
2023-03-23T16:11:26.111Z,15.60
2023-03-23T16:13:53.977Z,15.60
2023-03-23T16:16:31.188Z,15.30
2023-03-23T16:18:58.614Z,15.00
2023-03-23T16:21:26.292Z,14.80
2023-03-23T16:23:53.762Z,14.80
2023-03-23T16:26:21.127Z,14.70
2023-03-23T16:28:48.302Z,14.70
2023-03-23T16:31:15.765Z,14.70
2023-03-23T16:33:42.952Z,14.80
2023-03-23T16:36:13.324Z,14.80
2023-03-23T16:38:49.638Z,14.70
2023-03-23T16:41:18.804Z,14.80
2023-03-23T16:43:46.049Z,14.70
2023-03-23T16:46:14.271Z,14.80
2023-03-23T16:48:41.548Z,14.90
2023-03-23T16:51:09.236Z,15.00
2023-03-23T16:53:36.829Z,15.00
2023-03-23T16:56:04.732Z,15.00
2023-03-23T16:58:31.920Z,14.90
2023-03-23T17:01:00.825Z,14.80
2023-03-23T17:03:28.029Z,14.90
2023-03-23T17:05:55.708Z,14.80
2023-03-23T17:08:22.934Z,14.80
2023-03-23T17:10:50.522Z,14.80
2023-03-23T17:13:17.944Z,14.80
2023-03-23T17:15:47.211Z,14.80
2023-03-23T17:18:16.034Z,14.90
2023-03-23T17:20:43.575Z,14.90
2023-03-23T17:23:11.035Z,14.90
2023-03-23T17:25:38.395Z,14.70
2023-03-23T17:28:07.064Z,14.70
2023-03-23T17:30:35.508Z,14.80
2023-03-23T17:33:03.135Z,14.80
2023-03-23T17:35:30.453Z,14.70
2023-03-23T17:37:58.332Z,14.60
2023-03-23T17:40:25.774Z,14.70
2023-03-23T17:42:52.973Z,14.60
2023-03-23T17:45:20.235Z,14.60
2023-03-23T17:47:47.554Z,14.70
2023-03-23T17:50:14.877Z,14.70
2023-03-23T17:52:43.521Z,14.60
2023-03-23T17:55:11.517Z,14.60
2023-03-23T17:57:38.884Z,14.60
2023-03-23T18:00:08.692Z,14.60
2023-03-23T18:02:37.172Z,14.60
2023-03-23T18:05:06.281Z,14.50
2023-03-23T18:07:33.609Z,14.40
2023-03-23T18:10:01.165Z,14.40
2023-03-23T18:12:28.513Z,14.40
2023-03-23T18:14:59.352Z,14.50
2023-03-23T18:17:27.050Z,14.40
2023-03-23T18:19:54.480Z,14.30
2023-03-23T18:22:22.247Z,14.30
2023-03-23T18:24:49.616Z,14.20
2023-03-23T18:27:17.294Z,14.10
2023-03-23T18:29:44.773Z,14.10
2023-03-23T18:32:12.463Z,14.10
2023-03-23T18:34:43.465Z,14.10
2023-03-23T18:37:10.819Z,14.10
2023-03-23T18:39:39.108Z,14.10
2023-03-23T18:42:06.867Z,14.10
2023-03-23T18:44:34.454Z,14.10
2023-03-23T18:47:01.672Z,14.10
2023-03-23T18:49:30.292Z,14.10
2023-03-23T18:51:57.490Z,14.10
2023-03-23T18:54:24.767Z,14.10
2023-03-23T18:56:52.036Z,14.10
2023-03-23T18:59:19.254Z,14.10
2023-03-23T19:01:46.611Z,14.00
2023-03-23T19:04:14.530Z,13.90
2023-03-23T19:06:41.780Z,13.90
2023-03-23T19:09:09.013Z,14.00
2023-03-23T19:11:36.482Z,14.00
2023-03-23T19:14:03.963Z,13.60
2023-03-23T19:16:33.990Z,13.30
2023-03-23T19:19:02.368Z,13.40
2023-03-23T19:21:31.982Z,13.50
2023-03-23T19:24:01.275Z,13.50
2023-03-23T19:26:38.319Z,13.50
2023-03-23T19:31:44.685Z,13.60
2023-03-23T19:34:13.797Z,13.70
2023-03-23T19:36:41.132Z,13.70
2023-03-23T19:39:08.837Z,13.70
2023-03-23T19:41:37.204Z,13.80
2023-03-23T19:44:05.736Z,13.70
2023-03-23T19:46:33.117Z,13.70
2023-03-23T19:49:01.408Z,13.70
2023-03-23T19:51:28.667Z,13.70
2023-03-23T19:53:57.773Z,13.60
2023-03-23T19:56:28.926Z,13.70
2023-03-23T19:58:56.740Z,13.70
2023-03-23T20:01:24.021Z,13.70
2023-03-23T20:03:51.802Z,13.60
2023-03-23T20:06:19.453Z,13.70
2023-03-23T20:08:50.463Z,13.70
2023-03-23T20:11:19.268Z,13.80
2023-03-23T20:13:48.704Z,13.80
2023-03-23T20:16:17.716Z,13.80
2023-03-23T20:18:46.388Z,13.80
2023-03-23T20:21:19.711Z,13.80
2023-03-23T20:23:48.554Z,13.80
2023-03-23T20:26:25.588Z,13.70
2023-03-23T20:28:53.187Z,13.70
2023-03-23T20:31:27.212Z,13.70
2023-03-23T20:34:02.028Z,13.80
2023-03-23T20:36:35.822Z,13.70
2023-03-23T20:39:12.312Z,13.70
2023-03-23T20:41:40.345Z,13.70
2023-03-23T20:44:13.588Z,13.70
2023-03-23T20:46:45.775Z,13.60
2023-03-23T20:49:13.918Z,13.40
2023-03-23T20:51:41.725Z,13.40
2023-03-23T20:54:10.103Z,13.30
2023-03-23T20:56:40.309Z,13.30
2023-03-23T20:59:08.182Z,13.30
2023-03-23T21:01:35.719Z,13.20
2023-03-23T21:04:03.551Z,13.20
2023-03-23T21:06:31.328Z,13.10
2023-03-23T21:08:58.839Z,13.10
2023-03-23T21:11:27.255Z,13.10
2023-03-23T21:13:54.489Z,13.10
2023-03-23T21:16:24.208Z,13.10
2023-03-23T21:18:51.521Z,13.10
2023-03-23T21:21:18.883Z,13.10
2023-03-23T21:23:47.149Z,13.10
2023-03-23T21:26:16.888Z,13.00
2023-03-23T21:28:45.814Z,13.00
2023-03-23T21:31:15.031Z,13.10
2023-03-23T21:33:42.299Z,13.10
2023-03-23T21:36:10.697Z,13.00
2023-03-23T21:38:38.342Z,12.90
2023-03-23T21:41:12.602Z,12.80
2023-03-23T21:43:40.782Z,12.80
2023-03-23T21:46:09.508Z,12.80
2023-03-23T21:48:38.725Z,12.70
2023-03-23T21:51:08.631Z,12.60
2023-03-23T21:53:36.959Z,12.60
2023-03-23T21:56:07.098Z,12.60
2023-03-23T21:58:34.322Z,12.60
